sensor_id;sensor_type;location;lat;lon;timestamp;pressure;altitude;pressure_sealevel;temperature;humidity
59767;BME280;46248;58.364;25.582;2023-03-03T00:01:45;99837.00;;;0.31;81.76
59767;BME280;46248;58.364;25.582;2023-03-03T00:05:09;99836.94;;;0.32;83.05
59767;BME280;46248;58.364;25.582;2023-03-03T00:08:35;99824.19;;;0.26;82.51
59767;BME280;46248;58.364;25.582;2023-03-03T00:12:05;99820.72;;;0.27;82.46
59767;BME280;46248;58.364;25.582;2023-03-03T00:15:39;99830.16;;;0.28;82.48
59767;BME280;46248;58.364;25.582;2023-03-03T00:19:02;99804.69;;;0.14;82.70
59767;BME280;46248;58.364;25.582;2023-03-03T00:22:28;99823.41;;;0.22;82.59
59767;BME280;46248;58.364;25.582;2023-03-03T00:25:52;99826.06;;;0.19;82.48
59767;BME280;46248;58.364;25.582;2023-03-03T00:29:34;99814.13;;;0.15;83.11
59767;BME280;46248;58.364;25.582;2023-03-03T00:32:58;99796.44;;;-0.03;83.40
59767;BME280;46248;58.364;25.582;2023-03-03T00:36:29;99814.31;;;0.06;83.57
59767;BME280;46248;58.364;25.582;2023-03-03T00:40:02;99801.56;;;-0.02;83.50
59767;BME280;46248;58.364;25.582;2023-03-03T00:43:35;99815.22;;;0.02;83.92
59767;BME280;46248;58.364;25.582;2023-03-03T00:47:02;99811.88;;;-0.02;84.06
59767;BME280;46248;58.364;25.582;2023-03-03T00:50:35;99810.25;;;-0.07;84.16
59767;BME280;46248;58.364;25.582;2023-03-03T00:54:02;99816.31;;;-0.10;84.47
59767;BME280;46248;58.364;25.582;2023-03-03T00:57:26;99798.53;;;-0.22;84.23
59767;BME280;46248;58.364;25.582;2023-03-03T01:00:50;99806.19;;;-0.17;84.39
59767;BME280;46248;58.364;25.582;2023-03-03T01:04:15;99804.63;;;-0.26;84.93
59767;BME280;46248;58.364;25.582;2023-03-03T01:07:39;99816.41;;;-0.16;84.31
59767;BME280;46248;58.364;25.582;2023-03-03T01:11:05;99816.53;;;-0.22;84.50
59767;BME280;46248;58.364;25.582;2023-03-03T01:14:29;99824.38;;;-0.28;84.49
59767;BME280;46248;58.364;25.582;2023-03-03T01:17:54;99782.88;;;-0.58;84.91
59767;BME280;46248;58.364;25.582;2023-03-03T01:21:19;99811.72;;;-0.40;85.53
59767;BME280;46248;58.364;25.582;2023-03-03T01:24:42;99776.16;;;-0.63;85.14
59767;BME280;46248;58.364;25.582;2023-03-03T01:28:06;99809.25;;;-0.45;85.37
59767;BME280;46248;58.364;25.582;2023-03-03T01:31:29;99804.97;;;-0.44;85.59
59767;BME280;46248;58.364;25.582;2023-03-03T01:34:53;99805.03;;;-0.49;86.00
59767;BME280;46248;58.364;25.582;2023-03-03T01:38:17;99783.75;;;-0.59;86.29
59767;BME280;46248;58.364;25.582;2023-03-03T01:41:41;99794.00;;;-0.56;85.71
59767;BME280;46248;58.364;25.582;2023-03-03T01:45:22;99781.25;;;-0.62;86.02
59767;BME280;46248;58.364;25.582;2023-03-03T01:48:46;99788.84;;;-0.54;86.10
59767;BME280;46248;58.364;25.582;2023-03-03T01:52:15;99776.91;;;-0.58;86.81
59767;BME280;46248;58.364;25.582;2023-03-03T01:55:42;99770.00;;;-0.56;86.35
59767;BME280;46248;58.364;25.582;2023-03-03T01:59:12;99774.25;;;-0.54;86.22
59767;BME280;46248;58.364;25.582;2023-03-03T02:02:40;99770.84;;;-0.54;86.57
59767;BME280;46248;58.364;25.582;2023-03-03T02:06:08;99765.66;;;-0.53;86.70
59767;BME280;46248;58.364;25.582;2023-03-03T02:09:45;99770.81;;;-0.53;86.86
59767;BME280;46248;58.364;25.582;2023-03-03T02:13:12;99758.84;;;-0.54;86.71
59767;BME280;46248;58.364;25.582;2023-03-03T02:16:37;99753.75;;;-0.57;86.79
59767;BME280;46248;58.364;25.582;2023-03-03T02:20:05;99754.53;;;-0.53;87.08
59767;BME280;46248;58.364;25.582;2023-03-03T02:23:35;99761.31;;;-0.49;86.57
59767;BME280;46248;58.364;25.582;2023-03-03T02:27:02;99753.69;;;-0.54;87.45
59767;BME280;46248;58.364;25.582;2023-03-03T02:30:26;99716.47;;;-0.82;87.61
59767;BME280;46248;58.364;25.582;2023-03-03T02:33:52;99753.81;;;-0.61;88.25
59767;BME280;46248;58.364;25.582;2023-03-03T02:37:18;99756.38;;;-0.60;88.06
59767;BME280;46248;58.364;25.582;2023-03-03T02:40:47;99747.94;;;-0.68;87.99
59767;BME280;46248;58.364;25.582;2023-03-03T02:44:18;99739.31;;;-0.65;88.48
59767;BME280;46248;58.364;25.582;2023-03-03T02:47:48;99721.63;;;-0.82;88.80
59767;BME280;46248;58.364;25.582;2023-03-03T02:51:12;99747.88;;;-0.65;88.26
59767;BME280;46248;58.364;25.582;2023-03-03T02:54:36;99754.72;;;-0.64;89.03
59767;BME280;46248;58.364;25.582;2023-03-03T02:58:00;99750.41;;;-0.62;88.96
59767;BME280;46248;58.364;25.582;2023-03-03T03:01:24;99746.09;;;-0.61;89.42
59767;BME280;46248;58.364;25.582;2023-03-03T03:04:48;99749.50;;;-0.61;89.28
59767;BME280;46248;58.364;25.582;2023-03-03T03:08:11;99733.34;;;-0.66;89.47
59767;BME280;46248;58.364;25.582;2023-03-03T03:11:35;99728.25;;;-0.69;90.34
59767;BME280;46248;58.364;25.582;2023-03-03T03:14:59;99741.75;;;-0.58;89.93
59767;BME280;46248;58.364;25.582;2023-03-03T03:18:25;99740.84;;;-0.54;89.94
59767;BME280;46248;58.364;25.582;2023-03-03T03:21:48;99729.81;;;-0.62;90.08
59767;BME280;46248;58.364;25.582;2023-03-03T03:25:11;99732.34;;;-0.59;90.18
59767;BME280;46248;58.364;25.582;2023-03-03T03:28:35;99744.25;;;-0.55;90.18
59767;BME280;46248;58.364;25.582;2023-03-03T03:31:58;99750.31;;;-0.57;90.45
59767;BME280;46248;58.364;25.582;2023-03-03T03:35:23;99745.16;;;-0.56;91.51
59767;BME280;46248;58.364;25.582;2023-03-03T03:38:46;99732.44;;;-0.63;91.08
59767;BME280;46248;58.364;25.582;2023-03-03T03:42:10;99741.63;;;-0.50;91.36
59767;BME280;46248;58.364;25.582;2023-03-03T03:45:33;99742.44;;;-0.48;91.66
59767;BME280;46248;58.364;25.582;2023-03-03T03:48:57;99742.41;;;-0.47;91.60
59767;BME280;46248;58.364;25.582;2023-03-03T03:52:21;99735.69;;;-0.55;92.81
59767;BME280;46248;58.364;25.582;2023-03-03T03:55:45;99749.22;;;-0.44;92.99
59767;BME280;46248;58.364;25.582;2023-03-03T03:59:08;99749.13;;;-0.39;93.50
59767;BME280;46248;58.364;25.582;2023-03-03T04:02:31;99750.81;;;-0.38;93.84
59767;BME280;46248;58.364;25.582;2023-03-03T04:05:54;99744.78;;;-0.37;94.47
59767;BME280;46248;58.364;25.582;2023-03-03T04:09:19;99744.78;;;-0.36;95.29
59767;BME280;46248;58.364;25.582;2023-03-03T04:12:43;99735.22;;;-0.31;95.60
59767;BME280;46248;58.364;25.582;2023-03-03T04:16:06;99735.22;;;-0.31;96.87
59767;BME280;46248;58.364;25.582;2023-03-03T04:19:29;99736.94;;;-0.30;98.26
59767;BME280;46248;58.364;25.582;2023-03-03T04:22:53;99737.75;;;-0.28;98.83
59767;BME280;46248;58.364;25.582;2023-03-03T04:26:18;99742.03;;;-0.27;98.80
59767;BME280;46248;58.364;25.582;2023-03-03T04:29:41;99736.84;;;-0.25;99.19
59767;BME280;46248;58.364;25.582;2023-03-03T04:33:05;99743.72;;;-0.24;99.70
59767;BME280;46248;58.364;25.582;2023-03-03T04:36:29;99741.16;;;-0.26;100.00
59767;BME280;46248;58.364;25.582;2023-03-03T04:39:52;99752.25;;;-0.24;100.00
59767;BME280;46248;58.364;25.582;2023-03-03T04:43:18;99748.88;;;-0.26;100.00
59767;BME280;46248;58.364;25.582;2023-03-03T04:46:41;99760.00;;;-0.25;100.00
59767;BME280;46248;58.364;25.582;2023-03-03T04:50:06;99751.50;;;-0.29;100.00
59767;BME280;46248;58.364;25.582;2023-03-03T04:53:31;99754.00;;;-0.26;100.00
59767;BME280;46248;58.364;25.582;2023-03-03T04:56:55;99750.53;;;-0.25;100.00
59767;BME280;46248;58.364;25.582;2023-03-03T05:00:20;99739.47;;;-0.28;100.00
59767;BME280;46248;58.364;25.582;2023-03-03T05:03:44;99750.44;;;-0.18;100.00
59767;BME280;46248;58.364;25.582;2023-03-03T05:07:07;99746.94;;;-0.14;100.00
59767;BME280;46248;58.364;25.582;2023-03-03T05:10:32;99745.22;;;-0.15;100.00
59767;BME280;46248;58.364;25.582;2023-03-03T05:13:55;99740.94;;;-0.15;100.00
59767;BME280;46248;58.364;25.582;2023-03-03T05:17:20;99745.16;;;-0.12;100.00
59767;BME280;46248;58.364;25.582;2023-03-03T05:20:43;99746.88;;;-0.11;100.00
59767;BME280;46248;58.364;25.582;2023-03-03T05:24:07;99752.81;;;-0.08;100.00
59767;BME280;46248;58.364;25.582;2023-03-03T05:27:32;99753.59;;;-0.04;100.00
59767;BME280;46248;58.364;25.582;2023-03-03T05:30:55;99738.25;;;-0.10;100.00
59767;BME280;46248;58.364;25.582;2023-03-03T05:34:20;99745.78;;;-0.01;100.00
59767;BME280;46248;58.364;25.582;2023-03-03T05:37:43;99742.38;;;-0.02;100.00
59767;BME280;46248;58.364;25.582;2023-03-03T05:41:08;99752.63;;;0.02;100.00
59767;BME280;46248;58.364;25.582;2023-03-03T05:44:31;99740.59;;;0.02;100.00
59767;BME280;46248;58.364;25.582;2023-03-03T05:47:54;99738.91;;;0.01;100.00
59767;BME280;46248;58.364;25.582;2023-03-03T05:51:19;99737.22;;;0.00;100.00
59767;BME280;46248;58.364;25.582;2023-03-03T05:54:42;99748.19;;;0.08;100.00
59767;BME280;46248;58.364;25.582;2023-03-03T05:58:06;99749.91;;;0.09;100.00
59767;BME280;46248;58.364;25.582;2023-03-03T06:01:30;99750.69;;;0.13;100.00
59767;BME280;46248;58.364;25.582;2023-03-03T06:04:54;99754.94;;;0.14;100.00
59767;BME280;46248;58.364;25.582;2023-03-03T06:08:20;99754.94;;;0.14;100.00
59767;BME280;46248;58.364;25.582;2023-03-03T06:11:42;99756.66;;;0.13;100.00
59767;BME280;46248;58.364;25.582;2023-03-03T06:15:06;99718.47;;;-0.07;100.00
59767;BME280;46248;58.364;25.582;2023-03-03T06:18:30;99745.47;;;0.16;100.00
59767;BME280;46248;58.364;25.582;2023-03-03T06:21:54;99748.88;;;0.16;100.00
59767;BME280;46248;58.364;25.582;2023-03-03T06:25:21;99748.75;;;0.22;100.00
59767;BME280;46248;58.364;25.582;2023-03-03T06:28:44;99740.97;;;0.24;100.00
59767;BME280;46248;58.364;25.582;2023-03-03T06:32:08;99754.59;;;0.31;100.00
59767;BME280;46248;58.364;25.582;2023-03-03T06:35:34;99750.22;;;0.34;100.00
59767;BME280;46248;58.364;25.582;2023-03-03T06:39:16;99758.72;;;0.38;100.00
59767;BME280;46248;58.364;25.582;2023-03-03T06:42:41;99753.47;;;0.42;100.00
59767;BME280;46248;58.364;25.582;2023-03-03T06:46:05;99768.88;;;0.44;99.90
59767;BME280;46248;58.364;25.582;2023-03-03T06:49:29;99761.22;;;0.42;99.96
59767;BME280;46248;58.364;25.582;2023-03-03T06:53:01;99755.31;;;0.37;99.74
59767;BME280;46248;58.364;25.582;2023-03-03T06:56:29;99746.09;;;0.26;100.00
59767;BME280;46248;58.364;25.582;2023-03-03T07:00:00;99769.03;;;0.36;100.00
59767;BME280;46248;58.364;25.582;2023-03-03T07:03:32;99770.69;;;0.39;100.00
59767;BME280;46248;58.364;25.582;2023-03-03T07:06:56;99777.63;;;0.37;100.00
59767;BME280;46248;58.364;25.582;2023-03-03T07:10:23;99775.97;;;0.34;100.00
59767;BME280;46248;58.364;25.582;2023-03-03T07:13:50;99767.34;;;0.37;100.00
59767;BME280;46248;58.364;25.582;2023-03-03T07:17:16;99776.66;;;0.42;100.00
59767;BME280;46248;58.364;25.582;2023-03-03T07:20:39;99779.09;;;0.49;99.40
59767;BME280;46248;58.364;25.582;2023-03-03T07:24:14;99766.25;;;0.47;99.56
59767;BME280;46248;58.364;25.582;2023-03-03T07:27:40;99771.31;;;0.50;99.39
59767;BME280;46248;58.364;25.582;2023-03-03T07:31:20;99764.50;;;0.49;98.48
59767;BME280;46248;58.364;25.582;2023-03-03T07:34:48;99773.75;;;0.58;98.75
59767;BME280;46248;58.364;25.582;2023-03-03T07:38:23;99766.59;;;0.69;98.07
59767;BME280;46248;58.364;25.582;2023-03-03T07:41:47;99772.53;;;0.73;96.80
59767;BME280;46248;58.364;25.582;2023-03-03T07:45:24;99777.66;;;0.74;95.60
59767;BME280;46248;58.364;25.582;2023-03-03T07:48:50;99759.44;;;0.82;95.21
59767;BME280;46248;58.364;25.582;2023-03-03T07:52:30;99758.56;;;0.81;93.70
59767;BME280;46248;58.364;25.582;2023-03-03T07:55:53;99772.97;;;0.90;93.43
59767;BME280;46248;58.364;25.582;2023-03-03T07:59:20;99761.53;;;1.02;93.00
59767;BME280;46248;58.364;25.582;2023-03-03T08:02:45;99759.81;;;1.02;92.29
59767;BME280;46248;58.364;25.582;2023-03-03T08:06:29;99762.31;;;1.05;93.18
59767;BME280;46248;58.364;25.582;2023-03-03T08:09:58;99780.19;;;1.13;91.27
59767;BME280;46248;58.364;25.582;2023-03-03T08:13:22;99768.06;;;1.17;89.73
59767;BME280;46248;58.364;25.582;2023-03-03T08:16:45;99760.22;;;1.21;89.99
59767;BME280;46248;58.364;25.582;2023-03-03T08:24:04;99772.13;;;1.25;89.19
59767;BME280;46248;58.364;25.582;2023-03-03T08:27:28;99777.28;;;1.25;88.48
59767;BME280;46248;58.364;25.582;2023-03-03T08:30:52;99777.13;;;1.31;87.45
59767;BME280;46248;58.364;25.582;2023-03-03T08:34:35;99783.81;;;1.40;87.18
59767;BME280;46248;58.364;25.582;2023-03-03T08:38:00;99791.38;;;1.46;86.96
59767;BME280;46248;58.364;25.582;2023-03-03T08:41:26;99783.50;;;1.51;86.60
59767;BME280;46248;58.364;25.582;2023-03-03T08:44:50;99783.41;;;1.55;86.11
59767;BME280;46248;58.364;25.582;2023-03-03T08:48:14;99792.72;;;1.61;85.22
59767;BME280;46248;58.364;25.582;2023-03-03T08:51:39;99796.00;;;1.66;85.10
59767;BME280;46248;58.364;25.582;2023-03-03T08:55:02;99769.81;;;1.49;83.23
59767;BME280;46248;58.364;25.582;2023-03-03T08:58:30;99781.75;;;1.53;81.39
59767;BME280;46248;58.364;25.582;2023-03-03T09:01:56;99785.91;;;1.58;80.81
59767;BME280;46248;58.364;25.582;2023-03-03T09:05:21;99753.53;;;1.47;80.31
59767;BME280;46248;58.364;25.582;2023-03-03T09:08:47;99796.63;;;1.76;80.34
59767;BME280;46248;58.364;25.582;2023-03-03T09:12:16;99789.66;;;1.79;80.59
59767;BME280;46248;58.364;25.582;2023-03-03T09:15:42;99790.13;;;1.94;80.48
59767;BME280;46248;58.364;25.582;2023-03-03T09:19:24;99795.53;;;2.16;78.12
59767;BME280;46248;58.364;25.582;2023-03-03T09:22:51;99783.38;;;2.19;76.57
59767;BME280;46248;58.364;25.582;2023-03-03T09:26:25;99786.22;;;2.10;76.46
59767;BME280;46248;58.364;25.582;2023-03-03T09:29:50;99795.03;;;2.03;75.91
59767;BME280;46248;58.364;25.582;2023-03-03T09:33:37;99792.66;;;1.95;76.26
59767;BME280;46248;58.364;25.582;2023-03-03T09:37:16;99781.84;;;1.81;77.61
59767;BME280;46248;58.364;25.582;2023-03-03T09:40:52;99788.84;;;1.77;75.10
59767;BME280;46248;58.364;25.582;2023-03-03T09:44:36;99787.22;;;1.73;74.94
59767;BME280;46248;58.364;25.582;2023-03-03T09:52:32;99781.19;;;1.74;76.41
59767;BME280;46248;58.364;25.582;2023-03-03T09:56:06;99786.09;;;1.83;76.94
59767;BME280;46248;58.364;25.582;2023-03-03T09:59:45;99796.25;;;1.90;77.00
59767;BME280;46248;58.364;25.582;2023-03-03T10:07:36;99775.47;;;1.94;74.76
59767;BME280;46248;58.364;25.582;2023-03-03T10:11:09;99781.09;;;2.09;75.83
59767;BME280;46248;58.364;25.582;2023-03-03T10:18:36;99774.44;;;2.29;74.03
59767;BME280;46248;58.364;25.582;2023-03-03T10:22:15;99771.84;;;2.31;73.33
59767;BME280;46248;58.364;25.582;2023-03-03T10:25:49;99761.31;;;2.37;74.25
59767;BME280;46248;58.364;25.582;2023-03-03T10:29:26;99752.66;;;2.40;72.89
59767;BME280;46248;58.364;25.582;2023-03-03T10:32:58;99757.72;;;2.43;72.48
59767;BME280;46248;58.364;25.582;2023-03-03T10:36:41;99759.28;;;2.48;71.63
59767;BME280;46248;58.364;25.582;2023-03-03T10:40:18;99755.13;;;2.43;68.54
59767;BME280;46248;58.364;25.582;2023-03-03T10:44:07;99734.09;;;2.27;68.52
59767;BME280;46248;58.364;25.582;2023-03-03T10:47:55;99733.22;;;2.26;67.43
59767;BME280;46248;58.364;25.582;2023-03-03T10:51:31;99744.84;;;2.41;68.18
59767;BME280;46248;58.364;25.582;2023-03-03T10:59:08;99737.44;;;2.57;68.19
59767;BME280;46248;58.364;25.582;2023-03-03T11:02:46;99729.56;;;2.62;69.23
59767;BME280;46248;58.364;25.582;2023-03-03T11:06:20;99736.13;;;2.72;69.59
59767;BME280;46248;58.364;25.582;2023-03-03T11:10:01;99729.97;;;2.76;69.96
59767;BME280;46248;58.364;25.582;2023-03-03T11:13:36;99727.41;;;2.76;68.92
59767;BME280;46248;58.364;25.582;2023-03-03T11:17:16;99716.31;;;2.72;68.89
59767;BME280;46248;58.364;25.582;2023-03-03T11:20:52;99716.06;;;2.80;67.98
59767;BME280;46248;58.364;25.582;2023-03-03T11:24:29;99710.75;;;2.85;68.14
59767;BME280;46248;58.364;25.582;2023-03-03T11:28:11;99698.47;;;2.91;67.22
59767;BME280;46248;58.364;25.582;2023-03-03T11:31:45;99709.97;;;3.08;66.88
59767;BME280;46248;58.364;25.582;2023-03-03T11:35:21;99703.63;;;3.18;66.72
59767;BME280;46248;58.364;25.582;2023-03-03T11:38:53;99701.16;;;3.13;68.08
59767;BME280;46248;58.364;25.582;2023-03-03T11:42:23;99695.09;;;3.14;66.72
59767;BME280;46248;58.364;25.582;2023-03-03T11:45:50;99689.78;;;3.19;67.16
59767;BME280;46248;58.364;25.582;2023-03-03T11:49:21;99678.59;;;3.18;64.68
59767;BME280;46248;58.364;25.582;2023-03-03T11:52:53;99669.06;;;3.19;66.57
59767;BME280;46248;58.364;25.582;2023-03-03T11:56:22;99670.44;;;3.29;66.56
59767;BME280;46248;58.364;25.582;2023-03-03T11:59:57;99675.47;;;3.34;66.77
59767;BME280;46248;58.364;25.582;2023-03-03T12:03:30;99649.69;;;3.31;65.62
59767;BME280;46248;58.364;25.582;2023-03-03T12:07:12;99656.13;;;3.44;64.45
59767;BME280;46248;58.364;25.582;2023-03-03T12:10:46;99642.94;;;3.50;63.90
59767;BME280;46248;58.364;25.582;2023-03-03T12:14:17;99648.25;;;3.47;61.96
59767;BME280;46248;58.364;25.582;2023-03-03T12:18:15;99643.78;;;3.51;64.02
59767;BME280;46248;58.364;25.582;2023-03-03T12:21:59;99639.31;;;3.56;63.99
59767;BME280;46248;58.364;25.582;2023-03-03T12:25:34;99635.97;;;3.52;64.85
59767;BME280;46248;58.364;25.582;2023-03-03T12:29:05;99620.78;;;3.43;63.37
59767;BME280;46248;58.364;25.582;2023-03-03T12:32:51;99598.94;;;3.27;64.01
59767;BME280;46248;58.364;25.582;2023-03-03T12:36:29;99623.41;;;3.41;65.28
59767;BME280;46248;58.364;25.582;2023-03-03T12:40:07;99609.88;;;3.35;64.82
59767;BME280;46248;58.364;25.582;2023-03-03T12:43:42;99604.69;;;3.35;65.11
59767;BME280;46248;58.364;25.582;2023-03-03T12:47:14;99598.59;;;3.36;65.05
59767;BME280;46248;58.364;25.582;2023-03-03T12:50:50;99598.06;;;3.28;64.23
59767;BME280;46248;58.364;25.582;2023-03-03T12:54:46;99594.16;;;3.16;62.68
59767;BME280;46248;58.364;25.582;2023-03-03T12:58:22;99600.25;;;3.15;64.34
59767;BME280;46248;58.364;25.582;2023-03-03T13:02:04;99583.03;;;3.14;64.43
59767;BME280;46248;58.364;25.582;2023-03-03T13:05:46;99589.47;;;3.27;64.49
59767;BME280;46248;58.364;25.582;2023-03-03T13:09:22;99573.28;;;3.20;63.91
59767;BME280;46248;58.364;25.582;2023-03-03T13:12:51;99575.16;;;3.17;64.67
59767;BME280;46248;58.364;25.582;2023-03-03T13:16:20;99568.66;;;3.05;65.29
59767;BME280;46248;58.364;25.582;2023-03-03T13:20:02;99570.75;;;2.95;64.40
59767;BME280;46248;58.364;25.582;2023-03-03T13:23:41;99568.16;;;2.95;64.72
59767;BME280;46248;58.364;25.582;2023-03-03T13:27:07;99566.53;;;2.93;65.75
59767;BME280;46248;58.364;25.582;2023-03-03T13:30:35;99567.44;;;2.92;64.32
59767;BME280;46248;58.364;25.582;2023-03-03T13:34:00;99544.28;;;2.89;65.60
59767;BME280;46248;58.364;25.582;2023-03-03T13:37:28;99551.06;;;2.91;64.96
59767;BME280;46248;58.364;25.582;2023-03-03T13:41:04;99545.84;;;2.93;65.28
59767;BME280;46248;58.364;25.582;2023-03-03T13:44:33;99528.03;;;2.85;65.09
59767;BME280;46248;58.364;25.582;2023-03-03T13:48:03;99539.03;;;2.90;65.84
59767;BME280;46248;58.364;25.582;2023-03-03T13:51:39;99522.22;;;2.79;64.33
59767;BME280;46248;58.364;25.582;2023-03-03T13:55:19;99535.16;;;2.79;63.68
59767;BME280;46248;58.364;25.582;2023-03-03T13:58:51;99525.66;;;2.79;64.14
59767;BME280;46248;58.364;25.582;2023-03-03T14:02:34;99520.38;;;2.82;64.53
59767;BME280;46248;58.364;25.582;2023-03-03T14:06:09;99517.09;;;2.77;64.35
59767;BME280;46248;58.364;25.582;2023-03-03T14:09:49;99506.19;;;2.69;63.31
59767;BME280;46248;58.364;25.582;2023-03-03T14:13:19;99496.75;;;2.68;65.43
59767;BME280;46248;58.364;25.582;2023-03-03T14:16:52;99481.25;;;2.68;65.91
59767;BME280;46248;58.364;25.582;2023-03-03T14:20:23;99472.78;;;2.63;67.59
59767;BME280;46248;58.364;25.582;2023-03-03T14:23:49;99467.06;;;2.55;68.74
59767;BME280;46248;58.364;25.582;2023-03-03T14:27:24;99440.34;;;2.31;68.49
59767;BME280;46248;58.364;25.582;2023-03-03T14:30:48;99470.72;;;2.49;69.45
59767;BME280;46248;58.364;25.582;2023-03-03T14:34:36;99457.84;;;2.47;69.83
59767;BME280;46248;58.364;25.582;2023-03-03T14:38:08;99446.06;;;2.39;69.78
59767;BME280;46248;58.364;25.582;2023-03-03T14:41:38;99445.53;;;2.31;70.46
59767;BME280;46248;58.364;25.582;2023-03-03T14:45:17;99437.06;;;2.25;70.90
59767;BME280;46248;58.364;25.582;2023-03-03T14:48:50;99420.22;;;2.15;71.00
59767;BME280;46248;58.364;25.582;2023-03-03T14:52:24;99419.31;;;2.16;71.14
59767;BME280;46248;58.364;25.582;2023-03-03T14:55:49;99417.75;;;2.12;71.08
59767;BME280;46248;58.364;25.582;2023-03-03T14:59:18;99411.03;;;2.06;71.35
59767;BME280;46248;58.364;25.582;2023-03-03T15:03:00;99405.91;;;2.05;71.78
59767;BME280;46248;58.364;25.582;2023-03-03T15:06:40;99392.38;;;1.98;72.11
59767;BME280;46248;58.364;25.582;2023-03-03T15:10:07;99397.41;;;2.03;71.98
59767;BME280;46248;58.364;25.582;2023-03-03T15:13:34;99394.88;;;2.01;71.62
59767;BME280;46248;58.364;25.582;2023-03-03T15:17:16;99384.75;;;1.95;71.86
59767;BME280;46248;58.364;25.582;2023-03-03T15:20:41;99373.63;;;1.93;72.25
59767;BME280;46248;58.364;25.582;2023-03-03T15:24:10;99363.50;;;1.87;72.72
59767;BME280;46248;58.364;25.582;2023-03-03T15:27:40;99364.28;;;1.91;72.72
59767;BME280;46248;58.364;25.582;2023-03-03T15:31:06;99360.94;;;1.87;72.86
59767;BME280;46248;58.364;25.582;2023-03-03T15:34:39;99368.00;;;1.82;73.12
59767;BME280;46248;58.364;25.582;2023-03-03T15:38:17;99352.66;;;1.77;74.03
59767;BME280;46248;58.364;25.582;2023-03-03T15:41:54;99351.81;;;1.77;73.95
59767;BME280;46248;58.364;25.582;2023-03-03T15:45:26;99346.78;;;1.72;74.03
59767;BME280;46248;58.364;25.582;2023-03-03T15:48:59;99349.59;;;1.66;74.27
59767;BME280;46248;58.364;25.582;2023-03-03T15:52:38;99341.06;;;1.64;74.38
59767;BME280;46248;58.364;25.582;2023-03-03T15:56:16;99335.31;;;1.56;74.89
59767;BME280;46248;58.364;25.582;2023-03-03T15:59:56;99331.16;;;1.52;75.22
59767;BME280;46248;58.364;25.582;2023-03-03T16:03:30;99321.78;;;1.49;75.11
59767;BME280;46248;58.364;25.582;2023-03-03T16:07:01;99314.19;;;1.45;75.08
59767;BME280;46248;58.364;25.582;2023-03-03T16:10:33;99272.91;;;1.20;74.97
59767;BME280;46248;58.364;25.582;2023-03-03T16:14:13;99289.75;;;1.30;75.28
59767;BME280;46248;58.364;25.582;2023-03-03T16:17:52;99294.78;;;1.33;75.71
59767;BME280;46248;58.364;25.582;2023-03-03T16:21:33;99284.75;;;1.25;75.74
59767;BME280;46248;58.364;25.582;2023-03-03T16:25:08;99289.06;;;1.25;76.20
59767;BME280;46248;58.364;25.582;2023-03-03T16:28:49;99280.50;;;1.24;76.56
59767;BME280;46248;58.364;25.582;2023-03-03T16:32:18;99277.13;;;1.22;76.66
59767;BME280;46248;58.364;25.582;2023-03-03T16:35:52;99266.91;;;1.19;76.78
59767;BME280;46248;58.364;25.582;2023-03-03T16:39:22;99257.50;;;1.18;77.35
59767;BME280;46248;58.364;25.582;2023-03-03T16:42:58;99248.25;;;1.11;77.26
59767;BME280;46248;58.364;25.582;2023-03-03T16:46:30;99248.25;;;1.11;77.61
59767;BME280;46248;58.364;25.582;2023-03-03T16:50:09;99217.63;;;1.02;78.28
59767;BME280;46248;58.364;25.582;2023-03-03T16:53:45;99222.78;;;1.02;78.04
59767;BME280;46248;58.364;25.582;2023-03-03T16:57:18;99208.13;;;1.04;78.30
59767;BME280;46248;58.364;25.582;2023-03-03T17:00:49;99202.16;;;1.02;78.40
59767;BME280;46248;58.364;25.582;2023-03-03T17:04:21;99181.91;;;0.91;78.89
59767;BME280;46248;58.364;25.582;2023-03-03T17:08:04;99185.28;;;0.93;79.55
59767;BME280;46248;58.364;25.582;2023-03-03T17:11:42;99172.66;;;0.85;79.35
59767;BME280;46248;58.364;25.582;2023-03-03T17:15:26;99162.59;;;0.78;79.92
59767;BME280;46248;58.364;25.582;2023-03-03T17:19:02;99158.28;;;0.78;79.59
59767;BME280;46248;58.364;25.582;2023-03-03T17:22:38;99137.94;;;0.71;80.21
59767;BME280;46248;58.364;25.582;2023-03-03T17:26:29;99145.56;;;0.74;80.21
59767;BME280;46248;58.364;25.582;2023-03-03T17:30:04;99144.66;;;0.75;81.10
59767;BME280;46248;58.364;25.582;2023-03-03T17:33:42;99133.50;;;0.74;81.55
59767;BME280;46248;58.364;25.582;2023-03-03T17:37:19;99127.66;;;0.69;82.90
59767;BME280;46248;58.364;25.582;2023-03-03T17:40:52;99111.63;;;0.61;82.78
59767;BME280;46248;58.364;25.582;2023-03-03T17:44:24;99085.22;;;0.54;83.54
59767;BME280;46248;58.364;25.582;2023-03-03T17:48:11;99102.94;;;0.63;84.55
59767;BME280;46248;58.364;25.582;2023-03-03T17:55:51;99091.16;;;0.56;87.67
59767;BME280;46248;58.364;25.582;2023-03-03T17:59:38;99081.06;;;0.50;89.53
59767;BME280;46248;58.364;25.582;2023-03-03T18:03:34;99069.50;;;0.37;91.91
59767;BME280;46248;58.364;25.582;2023-03-03T18:11:14;99048.50;;;0.22;94.66
59767;BME280;46248;58.364;25.582;2023-03-03T18:15:18;99046.03;;;0.19;95.88
59767;BME280;46248;58.364;25.582;2023-03-03T18:18:58;99033.38;;;0.13;97.77
59767;BME280;46248;58.364;25.582;2023-03-03T18:22:30;99021.50;;;0.09;98.86
59767;BME280;46248;58.364;25.582;2023-03-03T18:25:55;99006.16;;;0.06;98.64
59767;BME280;46248;58.364;25.582;2023-03-03T18:29:23;98996.84;;;0.02;100.00
59767;BME280;46248;58.364;25.582;2023-03-03T18:33:01;98961.94;;;-0.07;100.00
59767;BME280;46248;58.364;25.582;2023-03-03T18:36:50;98970.28;;;0.02;100.00
59767;BME280;46248;58.364;25.582;2023-03-03T18:40:29;98956.50;;;0.03;100.00
59767;BME280;46248;58.364;25.582;2023-03-03T18:43:55;98948.03;;;0.01;100.00
59767;BME280;46248;58.364;25.582;2023-03-03T18:48:02;98936.91;;;-0.02;100.00
59767;BME280;46248;58.364;25.582;2023-03-03T18:51:48;98924.25;;;-0.08;100.00
59767;BME280;46248;58.364;25.582;2023-03-03T18:55:25;98903.69;;;-0.08;100.00
59767;BME280;46248;58.364;25.582;2023-03-03T18:58:50;98906.84;;;0.01;100.00